createdAt,value
2018-08-28T00:01:29.222Z,99823.00
2018-08-28T00:03:58.424Z,99826.00
2018-08-28T00:06:27.604Z,99828.00
2018-08-28T00:08:56.788Z,99826.00
2018-08-28T00:11:25.976Z,99832.00
2018-08-28T00:13:55.180Z,99827.00
2018-08-28T00:16:31.068Z,99826.00
2018-08-28T00:19:00.336Z,99820.00
2018-08-28T00:21:29.506Z,99826.00
2018-08-28T00:23:58.680Z,99829.00
2018-08-28T00:26:27.892Z,99821.00
2018-08-28T00:28:57.297Z,99837.00
2018-08-28T00:31:26.506Z,99836.00
2018-08-28T00:33:55.677Z,99839.00
2018-08-28T00:36:24.893Z,99843.00
2018-08-28T00:38:56.757Z,99840.00
2018-08-28T00:41:25.950Z,99842.00
2018-08-28T00:43:55.133Z,99841.00
2018-08-28T00:46:24.092Z,99853.00
2018-08-28T00:48:53.268Z,99856.00
2018-08-28T00:51:22.433Z,99861.00
2018-08-28T00:53:51.602Z,99869.00
2018-08-28T00:56:20.775Z,99869.00
2018-08-28T00:58:49.945Z,99870.00
2018-08-28T01:01:19.112Z,99873.00
2018-08-28T01:03:48.104Z,99873.00
2018-08-28T01:06:17.288Z,99880.00
2018-08-28T01:08:46.486Z,99883.00
2018-08-28T01:11:15.704Z,99886.00
2018-08-28T01:13:44.889Z,99882.00
2018-08-28T01:16:14.084Z,99877.00
2018-08-28T01:18:43.254Z,99889.00
2018-08-28T01:21:12.464Z,99892.00
2018-08-28T01:23:41.769Z,99895.00
2018-08-28T01:26:11.012Z,99896.00
2018-08-28T01:28:40.206Z,99890.00
2018-08-28T01:31:09.408Z,99899.00
2018-08-28T01:33:38.589Z,99895.00
2018-08-28T01:36:07.773Z,99895.00
2018-08-28T01:38:36.724Z,99900.00
2018-08-28T01:41:05.866Z,99897.00
2018-08-28T01:43:35.042Z,99899.00
2018-08-28T01:46:04.283Z,99894.00
2018-08-28T01:48:33.289Z,99900.00
2018-08-28T01:51:02.324Z,99905.00
2018-08-28T01:53:31.505Z,99907.00
2018-08-28T01:56:00.718Z,99905.00
2018-08-28T01:58:29.889Z,99910.00
2018-08-28T02:00:59.096Z,99913.00
2018-08-28T02:03:28.310Z,99917.00
2018-08-28T02:05:57.536Z,99918.00
2018-08-28T02:08:26.746Z,99915.00
2018-08-28T02:10:55.952Z,99924.00
2018-08-28T02:13:25.154Z,99922.00
2018-08-28T02:15:57.397Z,99918.00
2018-08-28T02:18:26.572Z,99926.00
2018-08-28T02:20:55.788Z,99920.00
2018-08-28T02:23:24.712Z,99928.00
2018-08-28T02:25:53.911Z,99934.00
2018-08-28T02:28:23.089Z,99934.00
2018-08-28T02:30:52.051Z,99935.00
2018-08-28T02:33:21.274Z,99937.00
2018-08-28T02:35:50.260Z,99936.00
2018-08-28T02:38:19.444Z,99941.00
2018-08-28T02:40:48.642Z,99940.00
2018-08-28T02:43:17.817Z,99943.00
2018-08-28T02:45:46.792Z,99952.00
2018-08-28T02:48:15.981Z,99947.00
2018-08-28T02:50:44.984Z,99950.00
2018-08-28T02:53:14.144Z,99955.00
2018-08-28T02:55:43.108Z,99961.00
2018-08-28T02:58:12.275Z,99951.00
2018-08-28T03:00:41.331Z,99959.00
2018-08-28T03:03:10.542Z,99956.00
2018-08-28T03:05:39.734Z,99962.00
2018-08-28T03:08:08.664Z,99966.00
2018-08-28T03:10:37.855Z,99963.00
2018-08-28T03:13:07.105Z,99968.00
2018-08-28T03:15:36.442Z,99964.00
2018-08-28T03:18:05.562Z,99970.00
2018-08-28T03:20:34.752Z,99968.00
2018-08-28T03:23:03.996Z,99971.00
2018-08-28T03:25:33.180Z,99969.00
2018-08-28T03:28:02.385Z,99978.00
2018-08-28T03:30:31.325Z,99978.00
2018-08-28T03:33:00.554Z,99981.00
2018-08-28T03:35:29.757Z,99987.00
2018-08-28T03:37:58.969Z,99984.00
2018-08-28T03:40:28.194Z,99994.00
2018-08-28T03:42:57.564Z,99991.00
2018-08-28T03:45:26.790Z,99995.00
2018-08-28T03:47:56.157Z,99989.00
2018-08-28T03:50:25.085Z,99994.00
2018-08-28T03:52:54.029Z,100001.00
2018-08-28T03:55:23.252Z,100002.00
2018-08-28T03:57:52.512Z,100003.00
2018-08-28T04:00:21.717Z,100006.00
2018-08-28T04:02:50.910Z,100010.00
2018-08-28T04:05:20.130Z,100003.00
2018-08-28T04:07:49.376Z,100009.00
2018-08-28T04:10:18.580Z,100012.00
2018-08-28T04:12:47.563Z,100027.00
2018-08-28T04:15:16.752Z,100021.00
2018-08-28T04:17:50.851Z,100019.00
2018-08-28T04:20:21.304Z,100023.00
2018-08-28T04:22:50.510Z,100021.00
2018-08-28T04:25:19.509Z,100023.00
2018-08-28T04:27:49.076Z,100026.00
2018-08-28T04:30:18.262Z,100025.00
2018-08-28T04:32:47.474Z,100024.00
2018-08-28T04:35:17.002Z,100029.00
2018-08-28T04:37:45.987Z,100033.00
2018-08-28T04:40:14.959Z,100030.00
2018-08-28T04:42:44.242Z,100037.00
2018-08-28T04:45:13.415Z,100044.00
2018-08-28T04:47:49.415Z,100048.00
2018-08-28T04:50:18.389Z,100046.00
2018-08-28T04:52:47.580Z,100046.00
2018-08-28T04:55:16.793Z,100051.00
2018-08-28T04:57:45.976Z,100055.00
2018-08-28T05:00:14.909Z,100053.00
2018-08-28T05:02:44.093Z,100058.00
2018-08-28T05:05:13.292Z,100058.00
2018-08-28T05:07:42.487Z,100062.00
2018-08-28T05:10:11.722Z,100062.00
2018-08-28T05:12:40.915Z,100067.00
2018-08-28T05:15:10.098Z,100060.00
2018-08-28T05:17:39.340Z,100065.00
2018-08-28T05:20:08.612Z,100073.00
2018-08-28T05:22:38.152Z,100070.00
2018-08-28T05:25:07.357Z,100067.00
2018-08-28T05:27:36.295Z,100081.00
2018-08-28T05:30:05.592Z,100084.00
2018-08-28T05:32:34.828Z,100091.00
2018-08-28T05:35:03.924Z,100093.00
2018-08-28T05:37:33.300Z,100091.00
2018-08-28T05:40:02.477Z,100090.00
2018-08-28T05:42:31.672Z,100092.00
2018-08-28T05:45:00.654Z,100090.00
2018-08-28T05:47:29.699Z,100093.00
2018-08-28T05:49:58.653Z,100092.00
2018-08-28T05:52:28.014Z,100094.00
2018-08-28T05:54:57.376Z,100094.00
2018-08-28T05:57:26.441Z,100089.00
2018-08-28T05:59:55.712Z,100092.00
2018-08-28T06:02:24.701Z,100096.00
2018-08-28T06:04:53.927Z,100090.00
2018-08-28T06:07:23.155Z,100097.00
2018-08-28T06:09:52.383Z,100095.00
2018-08-28T06:12:21.610Z,100096.00
2018-08-28T06:14:50.647Z,100104.00
2018-08-28T06:17:19.825Z,100108.00
2018-08-28T06:19:49.025Z,100109.00
2018-08-28T06:22:18.336Z,100103.00
2018-08-28T06:24:47.560Z,100117.00
2018-08-28T06:27:16.500Z,100117.00
2018-08-28T06:29:45.761Z,100119.00
2018-08-28T06:32:14.976Z,100119.00
2018-08-28T06:34:44.169Z,100115.00
2018-08-28T06:37:13.536Z,100128.00
2018-08-28T06:39:42.725Z,100125.00
2018-08-28T06:42:11.705Z,100119.00
2018-08-28T06:44:40.680Z,100128.00
2018-08-28T06:47:09.952Z,100121.00
2018-08-28T06:49:39.287Z,100125.00
2018-08-28T06:52:08.451Z,100121.00
2018-08-28T06:54:37.444Z,100121.00
2018-08-28T06:57:06.670Z,100123.00
2018-08-28T06:59:35.973Z,100131.00
2018-08-28T07:02:05.602Z,100140.00
2018-08-28T07:04:34.792Z,100140.00
2018-08-28T07:07:03.972Z,100141.00
2018-08-28T07:09:33.178Z,100142.00
2018-08-28T07:12:02.117Z,100147.00
2018-08-28T07:14:31.375Z,100143.00
2018-08-28T07:17:00.616Z,100149.00
2018-08-28T07:19:29.868Z,100154.00
2018-08-28T07:21:59.116Z,100155.00
2018-08-28T07:24:28.095Z,100150.00
2018-08-28T07:26:57.305Z,100158.00
2018-08-28T07:29:26.584Z,100159.00
2018-08-28T07:31:55.820Z,100161.00
2018-08-28T07:34:25.101Z,100168.00
2018-08-28T07:36:54.294Z,100166.00
2018-08-28T07:39:23.489Z,100167.00
2018-08-28T07:41:52.788Z,100170.00
2018-08-28T07:44:22.528Z,100171.00
2018-08-28T07:46:51.536Z,100174.00
2018-08-28T07:49:20.737Z,100172.00
2018-08-28T07:51:49.981Z,100173.00
2018-08-28T07:54:18.923Z,100184.00
2018-08-28T07:56:48.212Z,100177.00
2018-08-28T07:59:17.148Z,100184.00
2018-08-28T08:01:46.418Z,100182.00
2018-08-28T08:04:15.871Z,100181.00
2018-08-28T08:06:45.190Z,100182.00
2018-08-28T08:09:14.397Z,100192.00
2018-08-28T08:11:43.392Z,100180.00
2018-08-28T08:14:12.654Z,100186.00
2018-08-28T08:16:41.848Z,100194.00
2018-08-28T08:19:11.054Z,100195.00
2018-08-28T08:21:40.358Z,100192.00
2018-08-28T08:24:09.602Z,100194.00
2018-08-28T08:26:38.937Z,100193.00
2018-08-28T08:29:08.453Z,100201.00
2018-08-28T08:31:37.734Z,100199.00
2018-08-28T08:34:08.253Z,100195.00
2018-08-28T08:36:37.507Z,100199.00
2018-08-28T08:39:08.254Z,100204.00
2018-08-28T08:41:37.559Z,100204.00
2018-08-28T08:44:06.968Z,100201.00
2018-08-28T08:46:36.537Z,100205.00
2018-08-28T08:49:05.853Z,100199.00
2018-08-28T08:51:35.153Z,100200.00
2018-08-28T08:54:04.141Z,100201.00
2018-08-28T08:56:33.381Z,100197.00
2018-08-28T08:59:02.596Z,100202.00
2018-08-28T09:01:31.805Z,100196.00
2018-08-28T09:04:01.068Z,100192.00
2018-08-28T09:06:30.093Z,100199.00
2018-08-28T09:08:59.293Z,100199.00
2018-08-28T09:11:28.616Z,100205.00
2018-08-28T09:13:57.887Z,100205.00
2018-08-28T09:16:27.080Z,100199.00
2018-08-28T09:18:56.277Z,100199.00
2018-08-28T09:21:25.451Z,100199.00
2018-08-28T09:23:54.653Z,100201.00
2018-08-28T09:26:23.849Z,100195.00
2018-08-28T09:28:53.069Z,100205.00
2018-08-28T09:31:22.320Z,100201.00
2018-08-28T09:33:51.556Z,100202.00
2018-08-28T09:36:20.793Z,100192.00
2018-08-28T09:38:50.092Z,100189.00
2018-08-28T09:41:19.300Z,100187.00
2018-08-28T09:43:48.572Z,100195.00
2018-08-28T09:46:17.784Z,100194.00
2018-08-28T09:48:46.777Z,100196.00
2018-08-28T09:51:15.942Z,100195.00
2018-08-28T09:53:45.106Z,100195.00
2018-08-28T09:56:14.371Z,100200.00
2018-08-28T09:58:43.294Z,100193.00
2018-08-28T10:01:17.769Z,100202.00
2018-08-28T10:03:47.075Z,100204.00
2018-08-28T10:06:16.560Z,100211.00
2018-08-28T10:08:45.708Z,100201.00
2018-08-28T10:11:14.673Z,100205.00
2018-08-28T10:13:43.576Z,100206.00
2018-08-28T10:16:12.743Z,100208.00
2018-08-28T10:18:41.915Z,100200.00
2018-08-28T10:21:11.224Z,100206.00
2018-08-28T10:23:40.385Z,100205.00
2018-08-28T10:26:09.362Z,100206.00
2018-08-28T10:28:38.519Z,100197.00
2018-08-28T10:31:07.812Z,100208.00
2018-08-28T10:33:40.458Z,100213.00
2018-08-28T10:36:09.695Z,100215.00
2018-08-28T10:38:38.964Z,100209.00
2018-08-28T10:41:08.232Z,100204.00
2018-08-28T10:43:37.600Z,100204.00
2018-08-28T10:46:07.184Z,100210.00
2018-08-28T10:48:36.536Z,100218.00
2018-08-28T10:51:05.916Z,100209.00
2018-08-28T10:53:35.850Z,100208.00
2018-08-28T10:56:05.525Z,100205.00
2018-08-28T10:58:34.692Z,100204.00
2018-08-28T11:01:04.558Z,100205.00
2018-08-28T11:03:34.556Z,100206.00
2018-08-28T11:06:03.938Z,100207.00
2018-08-28T11:08:34.037Z,100209.00
2018-08-28T11:11:03.464Z,100214.00
2018-08-28T11:13:32.917Z,100210.00
2018-08-28T11:16:02.505Z,100219.00
2018-08-28T11:18:31.726Z,100212.00
2018-08-28T11:21:01.203Z,100209.00
2018-08-28T11:23:31.535Z,100209.00
2018-08-28T11:26:01.005Z,100213.00
2018-08-28T11:28:36.197Z,100204.00
2018-08-28T11:31:05.724Z,100208.00
2018-08-28T11:33:39.163Z,100205.00
2018-08-28T11:36:10.648Z,100208.00
2018-08-28T11:38:39.899Z,100218.00
2018-08-28T11:41:09.433Z,100214.00
2018-08-28T11:43:38.912Z,100213.00
2018-08-28T11:46:08.328Z,100207.00
2018-08-28T11:48:38.004Z,100211.00
2018-08-28T11:51:07.191Z,100209.00
2018-08-28T11:53:36.585Z,100209.00
2018-08-28T11:56:05.998Z,100211.00
2018-08-28T11:58:35.556Z,100205.00
2018-08-28T12:01:05.117Z,100208.00
2018-08-28T12:03:35.255Z,100215.00
2018-08-28T12:06:04.399Z,100201.00
2018-08-28T12:08:34.383Z,100204.00
2018-08-28T12:11:03.796Z,100210.00
2018-08-28T12:13:33.116Z,100208.00
2018-08-28T12:16:02.360Z,100208.00
2018-08-28T12:18:31.789Z,100207.00
2018-08-28T12:21:01.182Z,100205.00
2018-08-28T12:23:31.453Z,100205.00
2018-08-28T12:26:01.085Z,100204.00
2018-08-28T12:28:31.401Z,100209.00
2018-08-28T12:31:00.728Z,100199.00
2018-08-28T12:33:32.527Z,100200.00
2018-08-28T12:36:02.217Z,100203.00
2018-08-28T12:38:31.841Z,100203.00
2018-08-28T12:41:01.161Z,100196.00
2018-08-28T12:43:30.741Z,100198.00
2018-08-28T12:46:00.332Z,100195.00
2018-08-28T12:48:29.848Z,100184.00
2018-08-28T12:51:13.811Z,100191.00
2018-08-28T12:53:43.278Z,100185.00
2018-08-28T12:56:12.367Z,100189.00
2018-08-28T12:58:41.817Z,100185.00
2018-08-28T13:01:11.237Z,100175.00
2018-08-28T13:03:40.779Z,100183.00
2018-08-28T13:06:10.140Z,100181.00
2018-08-28T13:08:39.368Z,100176.00
2018-08-28T13:11:08.307Z,100177.00
2018-08-28T13:13:37.700Z,100170.00
2018-08-28T13:16:07.004Z,100172.00
2018-08-28T13:18:36.494Z,100172.00
2018-08-28T13:21:05.858Z,100171.00
2018-08-28T13:23:35.402Z,100168.00
2018-08-28T13:26:04.881Z,100173.00
2018-08-28T13:28:34.248Z,100172.00
2018-08-28T13:31:03.430Z,100163.00
2018-08-28T13:33:33.303Z,100169.00
2018-08-28T13:36:02.849Z,100164.00
2018-08-28T13:38:32.245Z,100165.00
2018-08-28T13:41:01.389Z,100166.00
2018-08-28T13:43:30.720Z,100156.00
2018-08-28T13:45:59.847Z,100151.00
2018-08-28T13:48:29.292Z,100155.00
2018-08-28T13:50:58.780Z,100157.00
2018-08-28T13:53:28.100Z,100154.00
2018-08-28T13:55:57.373Z,100146.00
2018-08-28T13:58:26.760Z,100153.00
2018-08-28T14:00:59.984Z,100150.00
2018-08-28T14:03:31.697Z,100148.00
2018-08-28T14:06:01.520Z,100152.00
2018-08-28T14:08:30.765Z,100157.00
2018-08-28T14:11:00.430Z,100147.00
2018-08-28T14:13:30.093Z,100150.00
2018-08-28T14:15:59.322Z,100143.00
2018-08-28T14:18:41.890Z,100144.00
2018-08-28T14:21:11.069Z,100140.00
2018-08-28T14:23:40.556Z,100146.00
2018-08-28T14:26:09.778Z,100144.00
2018-08-28T14:28:40.410Z,100150.00
2018-08-28T14:31:09.973Z,100150.00
2018-08-28T14:33:39.741Z,100144.00
2018-08-28T14:36:08.940Z,100146.00
2018-08-28T14:38:38.263Z,100138.00
2018-08-28T14:41:08.161Z,100136.00
2018-08-28T14:43:37.655Z,100138.00
2018-08-28T14:46:08.492Z,100142.00
2018-08-28T14:51:41.550Z,100143.00
2018-08-28T14:57:08.744Z,100131.00
2018-08-28T14:59:38.085Z,100133.00
2018-08-28T15:02:07.149Z,100132.00
2018-08-28T15:04:55.642Z,100139.00
2018-08-28T15:07:24.808Z,100134.00
2018-08-28T15:09:54.185Z,100125.00
2018-08-28T15:12:23.600Z,100129.00
2018-08-28T15:14:52.976Z,100125.00
2018-08-28T15:17:22.480Z,100131.00
2018-08-28T15:19:52.374Z,100132.00
2018-08-28T15:22:21.281Z,100129.00
2018-08-28T15:24:51.327Z,100128.00
2018-08-28T15:27:20.910Z,100133.00
2018-08-28T15:29:50.447Z,100128.00
2018-08-28T15:32:19.897Z,100129.00
2018-08-28T15:34:49.227Z,100129.00
2018-08-28T15:37:18.550Z,100126.00
2018-08-28T15:39:48.007Z,100120.00
2018-08-28T15:42:17.102Z,100116.00
2018-08-28T15:44:59.729Z,100121.00
2018-08-28T15:47:55.886Z,100117.00
2018-08-28T15:50:25.376Z,100116.00
2018-08-28T15:52:58.090Z,100121.00
2018-08-28T15:55:41.878Z,100117.00
2018-08-28T15:58:11.234Z,100113.00
2018-08-28T16:04:49.103Z,100129.00
2018-08-28T16:07:19.601Z,100130.00
2018-08-28T16:09:48.937Z,100125.00
2018-08-28T16:12:18.697Z,100129.00
2018-08-28T16:14:47.847Z,100124.00
2018-08-28T16:17:16.857Z,100124.00
2018-08-28T16:19:46.230Z,100121.00
2018-08-28T16:23:56.120Z,100117.00
2018-08-28T16:26:25.384Z,100116.00
2018-08-28T16:28:54.631Z,100113.00
2018-08-28T16:31:23.648Z,100117.00
2018-08-28T16:33:52.758Z,100114.00
2018-08-28T16:36:45.699Z,100103.00
2018-08-28T16:39:15.133Z,100105.00
2018-08-28T16:41:44.875Z,100106.00
2018-08-28T16:44:21.164Z,100101.00
2018-08-28T16:46:50.646Z,100106.00
2018-08-28T16:49:20.889Z,100101.00
2018-08-28T16:51:49.836Z,100103.00
2018-08-28T16:54:18.851Z,100103.00
2018-08-28T16:56:48.104Z,100097.00
2018-08-28T16:59:17.317Z,100104.00
2018-08-28T17:01:46.630Z,100103.00
2018-08-28T17:04:16.334Z,100103.00
2018-08-28T17:06:45.591Z,100099.00
2018-08-28T17:09:15.130Z,100099.00
2018-08-28T17:11:44.362Z,100091.00
2018-08-28T17:14:13.581Z,100095.00
2018-08-28T17:16:42.814Z,100094.00
2018-08-28T17:19:11.848Z,100096.00
2018-08-28T17:21:41.090Z,100088.00
2018-08-28T17:24:10.405Z,100092.00
2018-08-28T17:26:39.679Z,100091.00
2018-08-28T17:29:08.904Z,100094.00
2018-08-28T17:31:38.176Z,100093.00
2018-08-28T17:34:07.453Z,100088.00
2018-08-28T17:36:36.872Z,100090.00
2018-08-28T17:39:06.988Z,100095.00
2018-08-28T17:41:36.076Z,100094.00
2018-08-28T17:44:05.309Z,100097.00
2018-08-28T17:46:35.694Z,100091.00
2018-08-28T17:49:05.056Z,100094.00
2018-08-28T17:51:34.291Z,100099.00
2018-08-28T17:54:03.797Z,100094.00
2018-08-28T17:56:33.148Z,100092.00
2018-08-28T17:59:02.151Z,100089.00
2018-08-28T18:01:32.539Z,100084.00
2018-08-28T18:04:01.489Z,100094.00
2018-08-28T18:06:30.733Z,100100.00
2018-08-28T18:09:05.489Z,100095.00
2018-08-28T18:11:34.769Z,100089.00
2018-08-28T18:14:03.952Z,100087.00
2018-08-28T18:16:33.536Z,100090.00
2018-08-28T18:19:02.778Z,100096.00
2018-08-28T18:21:32.103Z,100090.00
2018-08-28T18:24:01.591Z,100095.00
2018-08-28T18:26:30.841Z,100092.00
2018-08-28T18:29:01.487Z,100092.00
2018-08-28T18:31:30.861Z,100099.00
2018-08-28T18:34:00.159Z,100103.00
2018-08-28T18:36:29.426Z,100101.00
2018-08-28T18:38:58.475Z,100110.00
2018-08-28T18:41:27.591Z,100104.00
2018-08-28T18:43:56.850Z,100115.00
2018-08-28T18:46:26.101Z,100105.00
2018-08-28T18:48:55.401Z,100106.00
2018-08-28T18:51:24.635Z,100106.00
2018-08-28T18:53:53.937Z,100105.00
2018-08-28T18:56:23.159Z,100101.00
2018-08-28T18:58:52.182Z,100097.00
2018-08-28T19:01:21.423Z,100101.00
2018-08-28T19:03:50.469Z,100099.00
2018-08-28T19:06:19.785Z,100092.00
2018-08-28T19:08:49.165Z,100094.00
2018-08-28T19:11:18.192Z,100092.00
2018-08-28T19:13:47.835Z,100090.00
2018-08-28T19:16:17.849Z,100091.00
2018-08-28T19:18:46.889Z,100097.00
2018-08-28T19:21:16.132Z,100094.00
2018-08-28T19:23:45.465Z,100098.00
2018-08-28T19:26:14.732Z,100092.00
2018-08-28T19:28:44.010Z,100088.00
2018-08-28T19:31:13.026Z,100093.00
2018-08-28T19:33:42.258Z,100096.00
2018-08-28T19:36:11.602Z,100096.00
2018-08-28T19:38:42.223Z,100093.00
2018-08-28T19:41:11.305Z,100089.00
2018-08-28T19:43:40.414Z,100093.00
2018-08-28T19:46:09.700Z,100085.00
2018-08-28T19:48:38.990Z,100088.00
2018-08-28T19:51:07.980Z,100083.00
2018-08-28T19:53:37.302Z,100083.00
2018-08-28T19:56:06.697Z,100069.00
2018-08-28T19:58:35.984Z,100070.00
2018-08-28T20:01:05.229Z,100080.00
2018-08-28T20:03:34.566Z,100079.00
2018-08-28T20:06:03.819Z,100074.00
2018-08-28T20:08:33.088Z,100069.00
2018-08-28T20:11:03.350Z,100078.00
2018-08-28T20:13:32.391Z,100085.00
2018-08-28T20:16:01.638Z,100081.00
2018-08-28T20:18:30.910Z,100082.00
2018-08-28T20:21:00.150Z,100087.00
2018-08-28T20:23:29.151Z,100082.00
2018-08-28T20:25:58.389Z,100075.00
2018-08-28T20:28:27.734Z,100073.00
2018-08-28T20:30:56.974Z,100065.00
2018-08-28T20:33:26.289Z,100069.00
2018-08-28T20:35:55.268Z,100067.00
2018-08-28T20:38:24.592Z,100067.00
2018-08-28T20:40:53.572Z,100067.00
2018-08-28T20:43:24.333Z,100065.00
2018-08-28T20:45:53.560Z,100066.00
2018-08-28T20:48:22.792Z,100059.00
2018-08-28T20:50:52.005Z,100060.00
2018-08-28T20:53:21.210Z,100059.00
2018-08-28T20:55:50.427Z,100054.00
2018-08-28T20:58:19.438Z,100060.00
2018-08-28T21:00:48.666Z,100056.00
2018-08-28T21:03:17.853Z,100051.00
2018-08-28T21:05:47.108Z,100047.00
2018-08-28T21:08:16.358Z,100058.00
2018-08-28T21:10:45.592Z,100055.00
2018-08-28T21:13:14.851Z,100057.00
2018-08-28T21:15:44.119Z,100050.00
2018-08-28T21:18:13.371Z,100054.00
2018-08-28T21:20:42.640Z,100048.00
2018-08-28T21:23:11.955Z,100048.00
2018-08-28T21:25:41.402Z,100057.00
2018-08-28T21:28:10.403Z,100053.00
2018-08-28T21:30:39.769Z,100053.00
2018-08-28T21:33:09.047Z,100051.00
2018-08-28T21:35:41.714Z,100052.00
2018-08-28T21:38:10.931Z,100048.00
2018-08-28T21:40:39.876Z,100056.00
2018-08-28T21:43:09.102Z,100053.00
2018-08-28T21:45:38.506Z,100053.00
2018-08-28T21:48:07.952Z,100057.00
2018-08-28T21:50:36.889Z,100060.00
2018-08-28T21:53:06.135Z,100052.00
2018-08-28T21:55:35.104Z,100046.00
2018-08-28T21:58:04.186Z,100046.00
2018-08-28T22:00:33.719Z,100049.00
2018-08-28T22:03:03.169Z,100047.00
2018-08-28T22:05:32.839Z,100043.00
2018-08-28T22:08:03.443Z,100040.00
2018-08-28T22:10:33.034Z,100047.00
2018-08-28T22:13:02.302Z,100044.00
2018-08-28T22:15:31.261Z,100035.00
2018-08-28T22:18:00.280Z,100037.00
2018-08-28T22:20:29.510Z,100043.00
2018-08-28T22:22:58.748Z,100042.00
2018-08-28T22:25:27.718Z,100043.00
2018-08-28T22:27:56.971Z,100048.00
2018-08-28T22:30:26.199Z,100045.00
2018-08-28T22:32:55.390Z,100041.00
2018-08-28T22:35:24.698Z,100046.00
2018-08-28T22:37:53.959Z,100035.00
2018-08-28T22:40:23.206Z,100037.00
2018-08-28T22:42:52.530Z,100033.00
2018-08-28T22:45:21.805Z,100037.00
2018-08-28T22:47:51.073Z,100030.00
2018-08-28T22:50:20.175Z,100033.00
2018-08-28T22:55:29.983Z,100031.00
2018-08-28T22:57:59.199Z,100029.00
2018-08-28T23:00:28.423Z,100026.00
2018-08-28T23:02:57.813Z,100020.00
2018-08-28T23:05:26.993Z,100019.00
2018-08-28T23:07:56.252Z,100018.00
2018-08-28T23:10:25.540Z,100012.00
2018-08-28T23:12:54.513Z,100016.00
2018-08-28T23:15:24.851Z,100019.00
2018-08-28T23:17:54.086Z,100009.00
2018-08-28T23:20:23.314Z,100013.00
2018-08-28T23:22:52.574Z,100007.00
2018-08-28T23:25:21.784Z,100013.00
2018-08-28T23:27:51.082Z,100014.00
2018-08-28T23:30:20.313Z,100007.00
2018-08-28T23:32:49.556Z,100005.00
2018-08-28T23:35:18.571Z,100003.00
2018-08-28T23:37:47.867Z,100005.00
2018-08-28T23:40:17.207Z,100008.00
2018-08-28T23:42:46.463Z,100003.00
2018-08-28T23:45:15.657Z,99998.00
2018-08-28T23:47:44.846Z,99983.00
2018-08-28T23:50:13.942Z,99989.00
2018-08-28T23:52:43.363Z,99992.00
2018-08-28T23:55:12.613Z,99990.00
2018-08-28T23:57:41.845Z,99986.00
